Time;durP1;ratioP1;P1;durP2;ratioP2;P2;SDS_P1;SDS_P2;PMS_P1;PMS_P2;Temp;Humidity;BMP_temperature;BMP_pressure;BME280_temperature;BME280_humidity;BME280_pressure;Samples;Min_cycle;Max_cycle;Signal;HPM_P1;HPM_P2
2022/11/01 00:01:21;;;;;;;17.03;15.63;;;16.30;42.60;;;;;;5052693;28;20179;-54
2022/11/01 00:03:47;;;;;;;15.50;14.30;;;16.20;42.20;;;;;;5069176;28;20241;-51
2022/11/01 00:06:12;;;;;;;15.77;14.60;;;16.20;42.20;;;;;;5069485;28;20178;-53
2022/11/01 00:08:38;;;;;;;15.20;14.00;;;16.30;42.40;;;;;;5070384;28;20518;-54
2022/11/01 00:11:07;;;;;;;17.30;15.90;;;16.30;42.40;;;;;;5068585;28;20659;-52
2022/11/01 00:13:33;;;;;;;16.00;14.80;;;16.30;42.10;;;;;;5068725;28;20182;-52
2022/11/01 00:15:59;;;;;;;15.03;14.03;;;16.30;42.10;;;;;;5069504;28;20435;-53
2022/11/01 00:18:25;;;;;;;14.93;13.80;;;16.30;42.40;;;;;;5068922;28;20183;-51
2022/11/01 00:20:51;;;;;;;16.80;15.60;;;16.20;42.00;;;;;;5070672;28;20413;-53
2022/11/01 00:23:17;;;;;;;16.90;15.50;;;16.20;42.20;;;;;;5069653;28;21036;-54
2022/11/01 00:25:42;;;;;;;16.17;14.87;;;16.20;42.20;;;;;;5069475;28;20780;-53
2022/11/01 00:28:08;;;;;;;14.43;13.47;;;16.20;42.30;;;;;;5068726;28;20526;-51
2022/11/01 00:30:38;;;;;;;16.20;15.00;;;16.30;42.20;;;;;;5068055;28;20175;-54
2022/11/01 00:33:04;;;;;;;15.87;14.60;;;16.30;42.20;;;;;;5069271;28;20630;-54
2022/11/01 00:35:31;;;;;;;17.27;15.97;;;16.30;42.20;;;;;;5067604;28;20470;-54
2022/11/01 00:37:58;;;;;;;17.33;16.03;;;16.30;41.90;;;;;;5070037;28;20417;-54
2022/11/01 00:40:24;;;;;;;16.03;14.80;;;16.20;42.50;;;;;;5069226;28;20421;-52
2022/11/01 00:42:50;;;;;;;18.37;16.83;;;16.20;42.50;;;;;;5069226;28;20586;-51
2022/11/01 00:45:16;;;;;;;19.03;17.37;;;16.30;42.50;;;;;;5068208;28;20920;-55
2022/11/01 00:47:41;;;;;;;17.73;16.60;;;16.30;42.20;;;;;;5067854;28;20198;-54
2022/11/01 00:50:07;;;;;;;16.87;15.60;;;16.30;41.80;;;;;;5068592;28;20235;-55
2022/11/01 00:52:33;;;;;;;19.60;17.87;;;16.20;42.60;;;;;;5068148;28;20187;-54
2022/11/01 00:54:59;;;;;;;19.20;17.33;;;16.20;42.40;;;;;;5067765;28;20576;-55
2022/11/01 00:57:24;;;;;;;19.13;17.70;;;16.20;42.50;;;;;;5066967;28;20193;-54
2022/11/01 00:59:50;;;;;;;18.00;16.37;;;16.20;42.40;;;;;;5066621;28;20192;-52
2022/11/01 01:02:16;;;;;;;17.23;15.97;;;16.20;42.30;;;;;;5066878;28;20701;-49
2022/11/01 01:04:42;;;;;;;17.73;16.43;;;16.20;42.40;;;;;;5070306;28;20261;-48
2022/11/01 01:07:09;;;;;;;16.13;14.83;;;16.20;42.00;;;;;;5068673;28;20189;-52
2022/11/01 01:09:34;;;;;;;16.17;14.90;;;16.20;41.80;;;;;;5068272;28;20415;-49
2022/11/01 01:12:01;;;;;;;16.17;14.97;;;16.20;42.00;;;;;;5069521;28;20790;-50
2022/11/01 01:14:27;;;;;;;15.40;14.40;;;16.20;42.00;;;;;;5069408;28;20189;-49
2022/11/01 01:16:53;;;;;;;17.13;15.77;;;16.20;42.00;;;;;;5069110;28;20417;-49
2022/11/01 01:19:19;;;;;;;16.20;14.50;;;16.20;41.80;;;;;;5068759;28;20884;-52
2022/11/01 01:21:44;;;;;;;16.00;14.70;;;16.30;41.70;;;;;;5067035;28;20579;-49
2022/11/01 01:24:10;;;;;;;14.37;13.43;;;16.20;41.80;;;;;;5067619;28;20210;-53
2022/11/01 01:26:36;;;;;;;16.37;15.07;;;16.20;41.50;;;;;;5068302;28;20171;-52
2022/11/01 01:29:02;;;;;;;15.47;14.57;;;16.20;41.60;;;;;;5066812;28;20299;-48
2022/11/01 01:31:27;;;;;;;15.20;14.20;;;16.20;41.30;;;;;;5068305;28;20417;-48
2022/11/01 01:33:53;;;;;;;16.60;15.20;;;16.20;41.00;;;;;;5086794;28;20582;-51
2022/11/01 01:36:18;;;;;;;13.73;12.93;;;16.20;41.20;;;;;;5068563;28;20183;-48
2022/11/01 01:38:44;;;;;;;15.17;14.17;;;16.20;41.00;;;;;;5068478;28;20187;-49
2022/11/01 01:43:54;;;;;;;16.60;15.00;;;16.20;40.80;;;;;;5086889;28;20209;-48
2022/11/01 01:46:20;;;;;;;13.87;13.17;;;16.20;40.40;;;;;;5068521;28;20896;-50
2022/11/01 01:48:50;;;;;;;14.80;13.90;;;16.30;40.60;;;;;;5068790;28;20537;-47
2022/11/01 01:51:20;;;;;;;16.33;15.27;;;16.30;40.40;;;;;;5069366;28;20185;-48
2022/11/01 01:53:53;;;;;;;14.67;13.73;;;16.20;40.40;;;;;;5068918;28;20423;-48
2022/11/01 01:56:24;;;;;;;15.57;14.50;;;16.20;40.40;;;;;;5069877;28;20448;-47
2022/11/01 01:58:55;;;;;;;14.97;14.07;;;16.30;40.40;;;;;;5068600;28;20506;-51
2022/11/01 02:01:21;;;;;;;14.80;13.50;;;16.30;40.30;;;;;;5068744;28;20989;-53
2022/11/01 02:03:48;;;;;;;14.70;13.30;;;16.30;40.10;;;;;;5067726;28;20555;-50
2022/11/01 02:06:16;;;;;;;15.33;14.43;;;16.40;39.60;;;;;;5067969;28;20675;-48
2022/11/01 02:08:45;;;;;;;14.40;13.70;;;16.40;39.20;;;;;;5085619;28;20778;-51
2022/11/01 02:11:13;;;;;;;15.77;14.37;;;16.40;39.10;;;;;;5067958;28;20408;-51
2022/11/01 02:13:39;;;;;;;13.53;12.80;;;16.50;38.80;;;;;;5066762;28;20419;-53
2022/11/01 02:16:30;;;;;;;14.70;13.60;;;16.50;38.80;;;;;;5066244;28;20421;-51
2022/11/01 02:19:37;;;;;;;14.50;13.60;;;16.50;38.90;;;;;;5065495;28;20179;-52
2022/11/01 02:22:40;;;;;;;15.00;14.00;;;16.40;39.30;;;;;;5019434;28;20475;-54
2022/11/01 02:25:52;;;;;;;12.87;12.03;;;16.40;39.90;;;;;;5066099;28;20890;-51
2022/11/01 02:28:43;;;;;;;14.60;13.70;;;16.40;39.60;;;;;;5064774;28;20416;-50
2022/11/01 02:31:39;;;;;;;14.00;13.03;;;16.40;39.10;;;;;;5065119;28;20791;-53
2022/11/01 02:34:25;;;;;;;14.33;13.20;;;16.50;38.70;;;;;;5084556;28;20803;-53
2022/11/01 02:37:27;;;;;;;14.40;13.50;;;16.50;38.40;;;;;;5067223;28;20404;-49
2022/11/01 02:40:00;;;;;;;14.63;13.73;;;16.50;37.80;;;;;;5080900;28;20419;-50
2022/11/01 02:42:36;;;;;;;15.40;13.90;;;16.60;37.30;;;;;;5087599;28;20467;-48
2022/11/01 02:45:26;;;;;;;15.23;14.03;;;16.50;37.20;;;;;;5089004;28;20423;-51
2022/11/01 02:47:53;;;;;;;15.00;13.70;;;16.50;37.60;;;;;;5088151;28;20416;-52
2022/11/01 02:50:19;;;;;;;14.33;13.10;;;16.50;37.50;;;;;;5106389;28;20779;-53
2022/11/01 02:52:46;;;;;;;13.50;12.80;;;16.50;37.20;;;;;;5088674;28;20420;-49
2022/11/01 02:55:28;;;;;;;13.97;12.87;;;16.50;37.20;;;;;;5087792;28;20227;-50
2022/11/01 02:58:26;;;;;;;13.60;12.80;;;16.60;37.30;;;;;;5087672;28;20921;-50
2022/11/01 03:00:52;;;;;;;14.33;13.00;;;16.50;37.20;;;;;;5088481;28;20458;-50
2022/11/01 03:03:22;;;;;;;13.23;12.47;;;16.40;37.50;;;;;;5088213;28;20473;-48
2022/11/01 03:06:01;;;;;;;13.63;12.93;;;16.50;37.20;;;;;;5091173;28;20199;-48
2022/11/01 03:08:40;;;;;;;14.30;13.40;;;16.40;37.10;;;;;;5089983;28;20419;-54
2022/11/01 03:11:16;;;;;;;13.70;12.90;;;16.20;36.90;;;;;;5091042;28;20447;-53
2022/11/01 03:13:51;;;;;;;14.80;14.00;;;16.10;37.80;;;;;;5088284;28;20427;-54
2022/11/01 03:16:41;;;;;;;14.67;13.77;;;16.10;38.10;;;;;;5088149;28;20500;-51
2022/11/01 03:19:21;;;;;;;13.73;12.83;;;16.10;37.90;;;;;;5087720;28;20671;-54
2022/11/01 03:22:04;;;;;;;14.30;13.60;;;16.10;37.80;;;;;;5088586;28;20484;-53
2022/11/01 03:24:46;;;;;;;13.97;13.23;;;16.00;37.90;;;;;;5088282;28;20926;-52
2022/11/01 03:27:31;;;;;;;14.77;13.60;;;16.00;38.10;;;;;;5088672;28;20408;-54
2022/11/01 03:30:10;;;;;;;14.53;13.10;;;16.00;38.10;;;;;;5105727;28;20527;-53
2022/11/01 03:32:42;;;;;;;16.13;14.47;;;16.20;38.50;;;;;;5089499;28;20782;-53
2022/11/01 03:35:13;;;;;;;13.53;12.83;;;16.30;38.10;;;;;;5108404;28;20399;-55
2022/11/01 03:37:41;;;;;;;13.53;12.63;;;16.40;37.70;;;;;;5088797;28;20403;-55
2022/11/01 03:40:09;;;;;;;13.60;12.80;;;16.50;37.20;;;;;;5090250;28;20408;-53
2022/11/01 03:42:36;;;;;;;13.50;12.70;;;16.50;37.20;;;;;;5107278;28;20509;-54
2022/11/01 03:45:08;;;;;;;15.10;14.00;;;16.50;37.20;;;;;;5088735;28;20404;-50
2022/11/01 03:47:35;;;;;;;13.60;12.90;;;16.60;37.30;;;;;;5088909;28;20777;-50
2022/11/01 03:50:30;;;;;;;14.57;13.47;;;16.60;37.30;;;;;;5088073;28;20407;-49
2022/11/01 03:52:56;;;;;;;15.87;14.57;;;16.60;37.30;;;;;;5066811;28;20416;-54
2022/11/01 03:55:22;;;;;;;15.00;14.10;;;16.70;37.40;;;;;;5089843;28;20434;-54
2022/11/01 03:57:50;;;;;;;13.57;12.70;;;16.70;37.40;;;;;;5106787;28;20412;-54
2022/11/01 04:00:25;;;;;;;12.97;12.27;;;16.70;37.20;;;;;;5087668;28;20565;-54
2022/11/01 04:02:53;;;;;;;14.20;13.07;;;16.70;37.40;;;;;;5090734;28;20481;-53
2022/11/01 04:05:20;;;;;;;15.20;14.00;;;16.70;37.40;;;;;;5091049;28;20406;-54
2022/11/01 04:07:45;;;;;;;13.70;13.00;;;16.70;37.40;;;;;;5108059;28;20412;-53
2022/11/01 04:10:12;;;;;;;14.83;13.43;;;16.70;37.40;;;;;;5092459;28;20420;-54
2022/11/01 04:12:38;;;;;;;12.83;12.23;;;16.70;37.40;;;;;;5091077;28;20202;-54
2022/11/01 04:21:15;;;;;;;13.93;13.03;;;16.80;37.50;;;;;;5108871;28;20430;-54
2022/11/01 04:23:45;;;;;;;12.50;11.80;;;16.80;37.50;;;;;;5091553;28;20818;-53
2022/11/01 04:26:21;;;;;;;11.63;10.93;;;16.80;37.50;;;;;;5091361;28;20404;-53
2022/11/01 04:28:57;;;;;;;11.90;11.00;;;16.80;36.30;;;;;;5090941;28;20416;-53
2022/11/01 04:31:27;;;;;;;13.07;12.30;;;16.80;35.40;;;;;;5093973;28;20902;-54
2022/11/01 04:33:54;;;;;;;12.50;11.90;;;16.90;36.60;;;;;;5092774;28;20996;-53
2022/11/01 04:36:20;;;;;;;12.80;11.97;;;16.90;37.00;;;;;;5092094;28;20437;-51
2022/11/01 04:38:51;;;;;;;11.17;10.67;;;16.90;37.60;;;;;;5092555;28;20718;-53
2022/11/01 04:41:21;;;;;;;12.37;11.57;;;16.90;37.60;;;;;;5093563;28;20182;-54
2022/11/01 04:43:47;;;;;;;12.87;11.77;;;16.90;37.60;;;;;;5093814;28;20520;-52
2022/11/01 04:46:13;;;;;;;13.00;12.10;;;16.90;37.60;;;;;;5093816;28;20903;-54
2022/11/01 04:48:39;;;;;;;12.40;11.73;;;17.00;37.70;;;;;;5088931;28;20416;-53
2022/11/01 04:51:05;;;;;;;10.90;10.27;;;16.90;37.60;;;;;;5094340;28;20182;-53
2022/11/01 04:53:31;;;;;;;12.13;10.63;;;16.90;35.20;;;;;;5079631;28;20432;-51
2022/11/01 04:55:57;;;;;;;10.73;10.10;;;16.90;35.50;;;;;;5088065;27;20519;-51
2022/11/01 04:58:23;;;;;;;11.60;10.80;;;16.80;35.00;;;;;;5105043;27;20663;-52
2022/11/01 05:00:48;;;;;;;12.57;11.57;;;16.80;34.70;;;;;;5102833;27;20186;-53
2022/11/01 05:03:14;;;;;;;10.33;9.63;;;16.80;34.80;;;;;;5093837;28;20205;-51
2022/11/01 05:05:40;;;;;;;10.50;9.93;;;16.80;34.80;;;;;;5093500;28;20199;-49
2022/11/01 05:08:08;;;;;;;11.57;10.67;;;16.80;34.80;;;;;;5094548;28;20790;-50
2022/11/01 05:10:35;;;;;;;11.40;10.90;;;16.80;35.00;;;;;;5091526;28;20265;-53
2022/11/01 05:13:02;;;;;;;10.30;9.70;;;16.80;35.20;;;;;;5089979;28;20767;-54
2022/11/01 05:15:27;;;;;;;10.43;9.93;;;16.80;35.10;;;;;;5093165;28;20559;-50
2022/11/01 05:17:53;;;;;;;9.93;9.53;;;16.80;35.30;;;;;;5093130;28;20510;-54
2022/11/01 05:20:19;;;;;;;10.73;10.33;;;16.80;35.70;;;;;;5093915;28;20626;-55
2022/11/01 05:22:45;;;;;;;11.47;10.73;;;16.80;35.70;;;;;;5091971;28;20228;-55
2022/11/01 05:25:10;;;;;;;10.10;9.63;;;16.80;35.90;;;;;;5090617;28;20423;-49
2022/11/01 05:27:37;;;;;;;11.07;10.47;;;16.90;36.10;;;;;;5089072;28;20429;-48
2022/11/01 05:30:04;;;;;;;10.53;9.90;;;16.90;36.20;;;;;;5089904;28;20179;-49
2022/11/01 05:32:30;;;;;;;11.63;11.00;;;17.00;36.20;;;;;;5089092;28;20447;-52
2022/11/01 05:34:55;;;;;;;10.00;9.50;;;17.00;36.60;;;;;;5085668;28;20440;-49
2022/11/01 05:37:21;;;;;;;10.60;10.00;;;17.00;36.30;;;;;;5088539;28;20924;-50
2022/11/01 05:39:47;;;;;;;10.60;10.00;;;17.10;36.50;;;;;;5096220;28;20182;-50
2022/11/01 05:42:12;;;;;;;10.53;9.90;;;17.00;37.70;;;;;;5089385;28;20243;-51
2022/11/01 05:44:38;;;;;;;10.50;9.90;;;16.90;37.60;;;;;;5071468;28;20183;-52
2022/11/01 05:47:04;;;;;;;10.00;9.70;;;16.90;38.80;;;;;;5084898;28;20223;-49
2022/11/01 05:49:30;;;;;;;9.50;9.10;;;16.80;40.60;;;;;;5079791;28;20608;-52
2022/11/01 05:51:56;;;;;;;10.13;9.83;;;16.70;41.90;;;;;;5076296;27;20413;-48
2022/11/01 05:54:22;;;;;;;9.43;9.13;;;16.60;43.10;;;;;;5078583;28;20439;-53
2022/11/01 05:56:47;;;;;;;9.67;9.27;;;16.50;45.00;;;;;;5087499;28;20170;-54
2022/11/01 05:59:13;;;;;;;10.40;10.00;;;16.40;44.90;;;;;;5081133;28;20194;-51
2022/11/01 06:01:39;;;;;;;10.17;9.60;;;16.40;45.20;;;;;;5085772;28;20637;-49
2022/11/01 06:04:05;;;;;;;9.63;9.03;;;16.30;45.80;;;;;;5088151;28;20305;-54
2022/11/01 06:06:31;;;;;;;8.80;8.50;;;16.30;46.40;;;;;;5086293;28;20166;-54
2022/11/01 06:08:57;;;;;;;10.20;9.40;;;16.30;47.00;;;;;;5071147;28;20416;-54
2022/11/01 06:11:24;;;;;;;9.67;9.23;;;16.30;47.10;;;;;;5070868;28;20413;-55
2022/11/01 06:13:57;;;;;;;9.20;8.80;;;16.30;47.10;;;;;;5071085;28;20499;-54
2022/11/01 06:16:25;;;;;;;9.30;8.80;;;16.20;47.10;;;;;;5071296;28;20439;-51
2022/11/01 06:18:51;;;;;;;9.00;8.60;;;16.30;47.90;;;;;;5070075;28;20413;-50
2022/11/01 06:21:17;;;;;;;9.43;9.03;;;16.40;47.70;;;;;;5070202;28;20530;-52
2022/11/01 06:23:46;;;;;;;9.10;8.60;;;16.50;47.30;;;;;;5081507;28;20496;-50
2022/11/01 06:26:12;;;;;;;9.33;8.93;;;16.50;47.40;;;;;;5082129;28;20460;-53
2022/11/01 06:28:38;;;;;;;9.77;9.13;;;16.60;47.40;;;;;;5086784;28;20524;-53
2022/11/01 06:31:04;;;;;;;9.00;8.70;;;16.50;47.30;;;;;;5087022;28;20171;-52
2022/11/01 06:33:30;;;;;;;9.00;8.70;;;16.40;47.20;;;;;;5088183;28;20559;-52
2022/11/01 06:35:56;;;;;;;9.60;9.10;;;16.40;47.80;;;;;;5090805;28;20182;-50
2022/11/01 06:38:22;;;;;;;9.00;8.70;;;16.40;47.20;;;;;;5096138;28;20412;-51
2022/11/01 06:40:47;;;;;;;8.60;8.30;;;16.40;48.00;;;;;;5070503;28;20491;-53
2022/11/01 06:43:13;;;;;;;8.87;8.57;;;16.40;48.20;;;;;;5071196;28;20199;-52
2022/11/01 06:45:39;;;;;;;9.00;8.70;;;16.40;48.60;;;;;;5078730;28;20577;-51
2022/11/01 06:48:05;;;;;;;9.40;9.10;;;16.30;48.60;;;;;;5090464;28;20212;-51
2022/11/01 06:50:31;;;;;;;8.73;8.43;;;16.20;47.70;;;;;;5089987;28;20181;-50
2022/11/01 06:52:58;;;;;;;8.70;8.40;;;16.20;48.50;;;;;;5084561;28;20484;-54
2022/11/01 06:55:25;;;;;;;8.70;8.40;;;16.20;48.80;;;;;;5082226;28;20427;-53
2022/11/01 06:58:02;;;;;;;8.30;7.93;;;16.10;49.10;;;;;;5095274;28;20420;-54
2022/11/01 07:00:28;;;;;;;8.57;8.30;;;16.10;49.60;;;;;;5085594;28;20411;-53
2022/11/01 07:03:03;;;;;;;8.27;8.00;;;16.10;50.30;;;;;;5087005;28;20508;-50
2022/11/01 07:05:31;;;;;;;7.87;7.53;;;16.00;49.90;;;;;;5078906;28;20419;-50
2022/11/01 07:07:56;;;;;;;7.70;7.40;;;16.00;50.50;;;;;;5069905;28;20466;-51
2022/11/01 07:10:22;;;;;;;7.87;7.67;;;16.00;50.00;;;;;;5078591;28;20814;-51
2022/11/01 07:12:48;;;;;;;7.60;7.40;;;16.00;50.70;;;;;;5086013;28;20641;-51
2022/11/01 07:15:13;;;;;;;8.13;7.73;;;16.00;51.00;;;;;;5088542;28;20181;-54
2022/11/01 07:17:39;;;;;;;7.70;7.50;;;16.10;50.30;;;;;;5089180;28;20689;-52
2022/11/01 07:20:05;;;;;;;8.27;7.97;;;16.10;49.80;;;;;;5082884;28;20213;-55
2022/11/01 07:22:31;;;;;;;7.73;7.43;;;16.10;50.00;;;;;;5107893;28;20247;-54
2022/11/01 07:24:56;;;;;;;8.10;7.80;;;16.20;49.90;;;;;;5088525;28;20439;-54
2022/11/01 07:27:22;;;;;;;8.30;8.10;;;16.20;50.00;;;;;;5087445;28;20231;-50
2022/11/01 07:29:47;;;;;;;8.27;8.07;;;16.20;49.40;;;;;;5089626;28;20193;-53
2022/11/01 07:32:13;;;;;;;8.20;8.00;;;16.20;49.40;;;;;;5087657;28;20206;-48
2022/11/01 07:34:39;;;;;;;7.93;7.73;;;16.30;49.30;;;;;;5088667;28;20758;-52
2022/11/01 07:37:04;;;;;;;7.50;7.30;;;16.20;49.00;;;;;;5085990;28;20217;-52
2022/11/01 07:39:30;;;;;;;8.00;7.70;;;16.20;49.50;;;;;;5082377;28;20670;-50
2022/11/01 07:41:57;;;;;;;7.70;7.50;;;16.20;49.60;;;;;;5068169;28;20194;-47
2022/11/01 07:44:23;;;;;;;8.07;7.87;;;16.30;49.20;;;;;;5067644;28;20208;-52
2022/11/01 07:46:49;;;;;;;8.00;7.80;;;16.50;47.90;;;;;;5068900;28;20413;-49
2022/11/01 07:49:14;;;;;;;8.40;8.10;;;16.50;47.30;;;;;;5081566;28;20184;-52
2022/11/01 07:51:40;;;;;;;8.30;8.00;;;16.60;47.40;;;;;;5092063;28;20209;-49
2022/11/01 07:54:06;;;;;;;7.97;7.67;;;16.50;47.40;;;;;;5080497;28;20596;-50
2022/11/01 07:56:31;;;;;;;7.97;7.77;;;16.50;47.50;;;;;;5072928;28;20170;-50
2022/11/01 07:58:57;;;;;;;8.53;8.17;;;16.50;47.40;;;;;;5085740;28;20211;-54
2022/11/01 08:01:22;;;;;;;8.40;8.10;;;16.50;47.40;;;;;;5090446;28;20174;-51
2022/11/01 08:03:48;;;;;;;8.20;8.00;;;16.50;47.30;;;;;;5075146;28;20202;-51
2022/11/01 08:06:16;;;;;;;8.20;7.90;;;16.60;47.40;;;;;;5071819;28;20544;-51
2022/11/01 08:08:44;;;;;;;8.10;7.80;;;16.70;47.50;;;;;;5073381;28;20175;-51
2022/11/01 08:11:10;;;;;;;8.60;8.07;;;16.70;47.50;;;;;;5082629;28;20427;-51
2022/11/01 08:13:36;;;;;;;8.17;7.87;;;16.80;47.60;;;;;;5090419;28;20419;-49
2022/11/01 08:16:02;;;;;;;8.50;8.20;;;16.80;47.60;;;;;;5109252;28;20536;-49
2022/11/01 08:18:27;;;;;;;10.73;9.50;;;16.90;46.50;;;;;;5084376;28;20610;-51
2022/11/01 08:20:53;;;;;;;8.60;8.30;;;16.90;46.60;;;;;;5090214;28;20493;-51
2022/11/01 08:23:19;;;;;;;7.97;7.77;;;16.90;46.90;;;;;;5092488;28;20216;-53
2022/11/01 08:25:45;;;;;;;8.23;7.80;;;17.00;47.10;;;;;;5089899;27;20193;-49
2022/11/01 08:28:17;;;;;;;8.30;8.00;;;17.10;47.40;;;;;;5090247;28;20411;-50
2022/11/01 08:30:44;;;;;;;7.77;7.47;;;17.10;47.30;;;;;;5087084;28;20171;-46
2022/11/01 08:33:11;;;;;;;8.10;7.70;;;17.10;47.00;;;;;;5085585;28;20530;-48
2022/11/01 08:35:37;;;;;;;7.97;7.77;;;17.20;46.70;;;;;;5085533;28;20417;-50
2022/11/01 08:38:03;;;;;;;8.30;8.00;;;17.20;46.80;;;;;;5085097;28;20496;-53
2022/11/01 08:40:30;;;;;;;8.90;8.50;;;17.30;46.50;;;;;;5087997;28;20455;-52
2022/11/01 08:42:57;;;;;;;8.77;8.37;;;17.30;45.70;;;;;;5088975;28;20534;-51
2022/11/01 08:45:23;;;;;;;9.17;8.87;;;17.30;46.00;;;;;;5092056;28;20953;-53
2022/11/01 08:47:48;;;;;;;9.30;8.90;;;17.30;45.00;;;;;;5084078;28;20416;-52
2022/11/01 08:50:16;;;;;;;8.57;8.27;;;17.30;45.10;;;;;;5101495;28;20456;-54
2022/11/01 08:52:42;;;;;;;8.97;8.13;;;17.20;45.40;;;;;;5086501;28;20186;-52
2022/11/01 08:55:09;;;;;;;8.80;8.30;;;17.20;45.00;;;;;;5087311;28;20497;-54
2022/11/01 08:57:35;;;;;;;8.30;8.03;;;17.20;44.20;;;;;;5092100;28;20854;-53
2022/11/01 09:00:02;;;;;;;8.97;8.10;;;17.20;44.40;;;;;;5090809;28;20420;-55
2022/11/01 09:02:28;;;;;;;8.83;8.40;;;17.30;44.20;;;;;;5073617;28;20455;-51
2022/11/01 09:04:54;;;;;;;8.67;8.37;;;17.20;43.70;;;;;;5074454;28;20466;-52
2022/11/01 09:07:19;;;;;;;8.00;7.80;;;17.30;43.70;;;;;;5075046;28;20180;-52
2022/11/01 09:09:45;;;;;;;8.23;7.93;;;17.30;44.10;;;;;;5074613;28;20571;-55
2022/11/01 09:12:11;;;;;;;7.87;7.67;;;17.30;43.60;;;;;;5072511;28;20171;-53
2022/11/01 09:14:37;;;;;;;7.70;7.50;;;17.30;44.30;;;;;;5074519;28;20178;-52
2022/11/01 09:17:03;;;;;;;7.87;7.57;;;17.30;43.90;;;;;;5090606;28;20826;-54
2022/11/01 09:19:29;;;;;;;8.33;8.03;;;17.30;44.00;;;;;;5093797;28;20415;-49
2022/11/01 09:21:54;;;;;;;8.37;8.17;;;17.30;44.20;;;;;;5094624;28;20181;-52
2022/11/01 09:24:20;;;;;;;8.03;7.83;;;17.30;43.50;;;;;;5093408;28;20289;-49
2022/11/01 09:26:46;;;;;;;8.33;8.13;;;17.30;43.50;;;;;;5092280;28;20283;-48
2022/11/01 09:29:12;;;;;;;8.40;8.20;;;17.20;43.70;;;;;;5074832;28;20638;-50
2022/11/01 09:31:37;;;;;;;8.20;8.00;;;17.20;43.40;;;;;;5088453;28;20491;-51
2022/11/01 09:34:03;;;;;;;8.67;8.27;;;17.20;43.50;;;;;;5069245;28;20580;-46
2022/11/01 09:36:29;;;;;;;8.60;8.30;;;17.20;43.70;;;;;;5094605;28;20178;-49
2022/11/01 09:38:56;;;;;;;8.20;7.90;;;17.20;44.30;;;;;;5094175;28;20180;-52
2022/11/01 09:41:44;;;;;;;8.83;8.43;;;17.20;44.60;;;;;;5090704;28;20540;-48
2022/11/01 09:44:15;;;;;;;8.50;8.20;;;17.20;43.60;;;;;;5089142;28;20473;-47
2022/11/01 09:47:07;;;;;;;7.63;7.43;;;17.30;43.40;;;;;;5088686;28;20799;-49
2022/11/01 09:49:38;;;;;;;8.10;7.90;;;17.30;43.30;;;;;;5092765;28;20423;-48
2022/11/01 09:52:06;;;;;;;8.20;7.90;;;17.30;43.60;;;;;;5093086;28;20488;-50
2022/11/01 09:54:32;;;;;;;7.83;7.63;;;17.40;42.50;;;;;;5094043;28;20438;-50
2022/11/01 09:57:06;;;;;;;8.80;8.40;;;17.40;41.30;;;;;;5092428;28;20412;-49
2022/11/01 09:59:35;;;;;;;8.00;7.80;;;17.50;40.70;;;;;;5094359;28;20948;-50
2022/11/01 10:02:45;;;;;;;8.50;8.20;;;17.60;40.60;;;;;;5087830;28;20780;-49
2022/11/01 10:05:44;;;;;;;9.30;9.00;;;17.70;40.50;;;;;;5029805;28;20968;-51
2022/11/01 10:08:09;;;;;;;8.37;8.07;;;17.80;38.60;;;;;;5074426;28;20401;-48
2022/11/01 10:10:38;;;;;;;8.37;8.17;;;17.90;37.10;;;;;;5073381;28;20416;-50
2022/11/01 10:13:43;;;;;;;8.13;7.93;;;17.90;36.70;;;;;;5073442;28;20178;-48
2022/11/01 10:16:31;;;;;;;8.80;8.40;;;18.00;35.60;;;;;;5074160;28;20413;-54
2022/11/01 10:19:20;;;;;;;8.60;8.10;;;18.10;35.60;;;;;;5074210;28;20417;-52
2022/11/01 10:22:00;;;;;;;8.10;7.40;;;18.00;35.70;;;;;;5073756;28;20994;-52
2022/11/01 10:24:40;;;;;;;8.60;8.40;;;18.10;35.30;;;;;;5078618;28;20835;-49
2022/11/01 10:27:28;;;;;;;8.87;8.50;;;18.10;35.70;;;;;;5090962;28;20442;-51
2022/11/01 10:29:54;;;;;;;8.23;7.93;;;18.10;35.70;;;;;;5088986;28;20472;-53
2022/11/01 10:32:52;;;;;;;8.43;7.90;;;18.10;35.00;;;;;;5090171;28;20491;-51
2022/11/01 10:35:29;;;;;;;8.43;8.17;;;18.10;34.90;;;;;;5090987;28;20415;-52
2022/11/01 10:38:06;;;;;;;8.30;8.00;;;18.10;35.40;;;;;;5089362;28;20420;-52
2022/11/01 10:40:37;;;;;;;7.90;7.60;;;18.10;34.90;;;;;;5089244;28;20417;-53
2022/11/01 10:43:16;;;;;;;7.43;7.13;;;18.10;35.20;;;;;;5089298;28;20460;-53
2022/11/01 10:45:44;;;;;;;7.93;7.63;;;18.10;34.90;;;;;;5089408;28;20821;-54
2022/11/01 10:48:26;;;;;;;8.70;8.40;;;18.10;34.30;;;;;;5089243;28;20772;-54
2022/11/01 10:50:53;;;;;;;8.50;8.20;;;18.20;34.10;;;;;;5090244;28;20413;-50
2022/11/01 10:53:20;;;;;;;8.30;8.00;;;18.30;33.70;;;;;;5089895;28;20801;-56
2022/11/01 10:55:51;;;;;;;7.93;7.63;;;18.30;33.30;;;;;;5089950;28;20451;-53
2022/11/01 10:58:37;;;;;;;9.10;8.80;;;18.30;33.70;;;;;;5089987;28;20424;-50
2022/11/01 11:01:05;;;;;;;8.03;7.83;;;18.30;32.20;;;;;;5088954;28;20425;-52
2022/11/01 11:03:31;;;;;;;7.80;7.60;;;18.30;32.70;;;;;;5089416;28;20456;-49
2022/11/01 11:06:00;;;;;;;8.20;7.90;;;18.30;32.30;;;;;;5093384;28;20471;-52
2022/11/01 11:08:26;;;;;;;8.83;8.27;;;18.30;32.00;;;;;;5092792;28;20174;-54
2022/11/01 11:10:54;;;;;;;9.20;8.70;;;18.20;32.30;;;;;;5091826;28;20919;-53
2022/11/01 11:13:23;;;;;;;9.00;8.60;;;18.30;32.30;;;;;;5093094;28;20459;-52
2022/11/01 11:15:53;;;;;;;8.27;8.03;;;18.20;32.20;;;;;;5092520;28;20911;-51
2022/11/01 11:18:29;;;;;;;9.07;8.77;;;18.20;32.20;;;;;;5094015;28;20575;-54
2022/11/01 11:21:01;;;;;;;8.87;8.27;;;18.20;32.30;;;;;;5093475;28;20960;-52
2022/11/01 11:23:29;;;;;;;7.87;7.67;;;18.20;32.60;;;;;;5093068;28;20447;-53
2022/11/01 11:26:21;;;;;;;8.70;8.20;;;18.20;32.20;;;;;;5093840;28;20407;-49
2022/11/01 11:28:51;;;;;;;8.50;8.10;;;18.30;31.70;;;;;;5091874;28;20408;-52
2022/11/01 11:31:30;;;;;;;8.50;8.27;;;18.30;31.30;;;;;;5097364;28;20794;-53
2022/11/01 11:33:59;;;;;;;8.20;7.77;;;18.30;31.30;;;;;;5097066;28;20415;-49
2022/11/01 11:36:32;;;;;;;7.53;7.33;;;18.30;31.10;;;;;;5097164;28;20424;-50
2022/11/01 11:39:00;;;;;;;8.43;7.70;;;18.30;31.20;;;;;;5096427;28;20411;-51
2022/11/01 11:41:37;;;;;;;8.80;8.40;;;18.40;31.40;;;;;;5095598;28;20416;-54
2022/11/01 11:44:42;;;;;;;9.30;8.40;;;18.40;30.70;;;;;;5096214;28;20459;-53
2022/11/01 11:47:24;;;;;;;8.20;7.80;;;18.40;30.90;;;;;;5095464;28;20404;-53
2022/11/01 11:49:52;;;;;;;7.87;7.57;;;18.40;30.20;;;;;;5095286;28;20407;-53
2022/11/01 11:52:22;;;;;;;7.70;7.50;;;18.40;30.10;;;;;;5095153;28;20469;-49
2022/11/01 11:54:47;;;;;;;8.10;7.67;;;18.30;30.10;;;;;;5094141;28;20457;-53
2022/11/01 11:57:18;;;;;;;7.57;7.37;;;18.40;30.10;;;;;;5095402;28;20436;-52
2022/11/01 11:59:49;;;;;;;8.30;7.90;;;18.30;29.80;;;;;;5095078;28;21013;-54
2022/11/01 12:02:36;;;;;;;8.00;7.80;;;18.30;29.70;;;;;;5095984;28;20415;-54
2022/11/01 12:05:05;;;;;;;8.07;7.87;;;18.30;30.00;;;;;;5096572;28;20459;-53
2022/11/01 12:07:55;;;;;;;8.87;8.57;;;18.40;29.90;;;;;;5112865;28;20984;-53
2022/11/01 12:10:36;;;;;;;8.70;8.37;;;18.40;29.70;;;;;;5095973;28;20419;-54
2022/11/01 12:13:22;;;;;;;8.73;8.43;;;18.40;29.70;;;;;;5096938;28;20420;-52
2022/11/01 12:15:48;;;;;;;8.60;8.27;;;18.30;29.60;;;;;;5097029;28;20420;-53
2022/11/01 12:18:15;;;;;;;9.10;8.70;;;18.30;29.70;;;;;;5094314;28;20851;-54
2022/11/01 12:20:41;;;;;;;9.50;9.20;;;18.30;29.50;;;;;;5095002;28;20174;-53
2022/11/01 12:23:38;;;;;;;9.47;9.07;;;18.30;29.00;;;;;;5093785;28;20563;-54
2022/11/01 12:26:10;;;;;;;9.40;9.00;;;18.40;29.30;;;;;;5090962;28;20895;-54
2022/11/01 12:28:52;;;;;;;9.43;9.13;;;18.40;29.20;;;;;;5095248;28;20415;-57
2022/11/01 12:31:18;;;;;;;9.20;8.80;;;18.50;31.10;;;;;;5095453;28;20812;-58
2022/11/01 12:34:06;;;;;;;9.40;9.10;;;18.50;32.70;;;;;;5095294;28;20416;-58
2022/11/01 12:36:47;;;;;;;9.37;8.90;;;18.30;33.60;;;;;;5111198;28;20774;-58
2022/11/01 12:39:39;;;;;;;10.93;8.80;;;18.20;34.50;;;;;;5093206;28;20416;-57
2022/11/01 12:42:05;;;;;;;9.73;9.20;;;18.10;34.70;;;;;;5094360;28;20420;-56
2022/11/01 12:44:37;;;;;;;9.37;8.87;;;18.00;35.00;;;;;;5094654;28;20794;-56
2022/11/01 12:47:20;;;;;;;9.63;9.23;;;17.90;35.40;;;;;;5093216;28;20261;-57
2022/11/01 12:49:55;;;;;;;9.07;8.77;;;17.90;35.70;;;;;;5092941;28;20782;-53
2022/11/01 12:52:21;;;;;;;9.60;9.20;;;17.80;35.90;;;;;;5094826;28;20434;-53
2022/11/01 12:55:04;;;;;;;9.87;9.37;;;17.80;35.60;;;;;;5094516;28;20415;-52
2022/11/01 12:57:31;;;;;;;9.60;9.20;;;17.70;35.80;;;;;;5095371;28;20264;-50
2022/11/01 12:59:57;;;;;;;10.30;9.67;;;17.60;35.80;;;;;;5094738;28;20416;-54
2022/11/01 13:02:42;;;;;;;9.63;9.10;;;17.50;36.10;;;;;;5095560;28;20416;-51
2022/11/01 13:05:22;;;;;;;9.80;9.40;;;17.40;36.30;;;;;;5093988;28;20528;-50